Time;durP1;ratioP1;P1;durP2;ratioP2;P2;SDS_P1;SDS_P2;PMS_P1;PMS_P2;Temp;Humidity;BMP_temperature;BMP_pressure;BME280_temperature;BME280_humidity;BME280_pressure;Samples;Min_cycle;Max_cycle;Signal;HPM_P1;HPM_P2
2021/10/27 00:00:36;;;;;;;6.03;5.53;;;9.10;74.00;;;;;;4995960;28;20652;-82
2021/10/27 00:03:02;;;;;;;6.10;5.60;;;9.00;74.00;;;;;;4995288;28;20638;-82
2021/10/27 00:05:28;;;;;;;6.70;6.20;;;9.00;75.20;;;;;;4995288;28;20467;-82
2021/10/27 00:07:54;;;;;;;9.33;6.03;;;9.00;74.80;;;;;;4995196;28;20440;-82
2021/10/27 00:10:20;;;;;;;8.83;6.50;;;9.10;74.40;;;;;;4996215;28;20453;-81
2021/10/27 00:12:47;;;;;;;5.80;5.30;;;9.00;74.70;;;;;;4995092;28;20213;-81
2021/10/27 00:15:15;;;;;;;7.13;5.70;;;9.00;74.60;;;;;;4994598;28;20476;-81
2021/10/27 00:17:44;;;;;;;5.63;5.23;;;9.00;74.80;;;;;;4994830;28;20837;-82
2021/10/27 00:20:11;;;;;;;7.17;6.00;;;9.00;74.90;;;;;;4995914;28;20412;-82
2021/10/27 00:22:39;;;;;;;6.27;5.73;;;8.90;74.40;;;;;;4996745;28;20401;-82
2021/10/27 00:25:06;;;;;;;6.37;5.77;;;8.90;74.90;;;;;;4995174;28;20500;-82
2021/10/27 00:27:32;;;;;;;6.73;5.97;;;8.90;74.30;;;;;;4994528;28;20414;-82
2021/10/27 00:29:57;;;;;;;8.63;6.83;;;8.90;74.60;;;;;;4994493;28;20420;-82
2021/10/27 00:32:23;;;;;;;6.90;6.30;;;8.90;74.80;;;;;;4994884;28;20174;-81
2021/10/27 00:34:49;;;;;;;7.80;6.60;;;8.90;74.40;;;;;;4994759;28;20181;-82
2021/10/27 00:37:14;;;;;;;6.87;6.17;;;8.90;74.80;;;;;;4994448;28;20177;-82
2021/10/27 00:39:40;;;;;;;5.30;4.90;;;8.90;74.60;;;;;;4994857;28;20178;-82
2021/10/27 00:42:06;;;;;;;6.60;5.43;;;8.80;73.90;;;;;;4994358;28;20229;-82
2021/10/27 00:44:32;;;;;;;6.57;5.97;;;8.80;74.80;;;;;;4994459;28;20574;-81
2021/10/27 00:46:58;;;;;;;5.87;5.40;;;8.80;74.50;;;;;;4994731;28;20813;-82
2021/10/27 00:49:25;;;;;;;5.90;5.40;;;8.80;74.20;;;;;;4995138;28;20669;-82
2021/10/27 00:51:50;;;;;;;6.50;5.33;;;8.70;74.60;;;;;;4995008;28;20375;-81
2021/10/27 00:54:16;;;;;;;5.93;5.43;;;8.80;75.00;;;;;;4994694;28;20432;-81
2021/10/27 00:56:43;;;;;;;5.50;5.10;;;8.70;74.60;;;;;;4994330;28;20517;-81
2021/10/27 00:59:10;;;;;;;6.33;5.70;;;8.70;74.90;;;;;;4994998;28;20556;-81
2021/10/27 01:01:36;;;;;;;6.27;5.67;;;8.70;74.70;;;;;;4994248;28;20417;-81
2021/10/27 01:04:03;;;;;;;6.23;5.60;;;8.70;75.40;;;;;;4995199;28;20443;-81
2021/10/27 01:06:29;;;;;;;6.27;5.60;;;8.60;75.30;;;;;;4994092;28;20440;-81
2021/10/27 01:08:55;;;;;;;6.50;5.90;;;8.60;76.10;;;;;;4994239;28;20515;-80
2021/10/27 01:11:24;;;;;;;5.97;5.47;;;8.60;75.60;;;;;;4995462;28;20784;-82
2021/10/27 01:13:50;;;;;;;6.03;5.30;;;8.60;75.30;;;;;;4994951;28;20484;-81
2021/10/27 01:16:16;;;;;;;6.43;5.83;;;8.70;75.40;;;;;;4994806;28;21047;-81
2021/10/27 01:18:42;;;;;;;7.37;6.67;;;8.60;74.40;;;;;;4994128;28;20516;-82
2021/10/27 01:21:07;;;;;;;6.63;5.93;;;8.70;74.80;;;;;;4994193;28;20178;-82
2021/10/27 01:23:33;;;;;;;6.30;5.27;;;8.60;75.00;;;;;;4994211;28;20480;-81
2021/10/27 01:26:08;;;;;;;6.60;6.00;;;8.60;75.70;;;;;;4993267;28;20217;-81
2021/10/27 01:28:39;;;;;;;5.90;5.33;;;8.60;75.20;;;;;;4994147;28;20265;-81
2021/10/27 01:31:04;;;;;;;5.93;5.27;;;8.60;74.40;;;;;;4994215;28;20973;-81
2021/10/27 01:33:30;;;;;;;6.33;5.80;;;8.60;74.30;;;;;;4994417;28;20427;-81
2021/10/27 01:35:56;;;;;;;6.60;6.10;;;8.60;74.30;;;;;;4995628;28;20216;-82
2021/10/27 01:38:21;;;;;;;7.90;5.70;;;8.60;74.40;;;;;;4993246;28;20209;-82
2021/10/27 01:40:47;;;;;;;6.60;6.00;;;8.60;73.80;;;;;;4993796;28;20193;-85
2021/10/27 01:43:12;;;;;;;6.40;5.90;;;8.50;74.90;;;;;;4994093;28;20240;-84
2021/10/27 01:45:38;;;;;;;5.80;5.23;;;8.50;74.60;;;;;;4994318;28;20182;-85
2021/10/27 01:48:04;;;;;;;5.33;4.93;;;8.50;74.30;;;;;;4994715;28;20189;-85
2021/10/27 01:50:30;;;;;;;6.60;5.30;;;8.50;75.00;;;;;;4996296;28;20198;-85
2021/10/27 01:52:58;;;;;;;5.37;4.90;;;8.40;73.70;;;;;;4994777;28;20426;-85
2021/10/27 01:55:24;;;;;;;5.97;5.47;;;8.50;74.30;;;;;;4997412;28;20174;-84
2021/10/27 01:57:50;;;;;;;5.90;5.13;;;8.50;73.80;;;;;;4993719;28;20836;-84
2021/10/27 02:00:16;;;;;;;5.80;5.20;;;8.40;73.90;;;;;;4994575;28;20174;-84
2021/10/27 02:02:45;;;;;;;5.43;4.87;;;8.50;74.50;;;;;;4993758;28;20232;-84
2021/10/27 02:05:12;;;;;;;5.80;5.30;;;8.50;74.00;;;;;;4993128;28;20465;-85
2021/10/27 02:07:38;;;;;;;6.27;5.50;;;8.50;73.20;;;;;;4992805;28;20429;-84
2021/10/27 02:10:07;;;;;;;5.90;5.40;;;8.40;73.70;;;;;;4993273;28;20972;-85
2021/10/27 02:12:34;;;;;;;8.67;5.67;;;8.40;73.50;;;;;;4993347;28;20429;-85
2021/10/27 02:15:00;;;;;;;5.73;5.23;;;8.40;74.40;;;;;;4993445;28;20421;-85
2021/10/27 02:17:25;;;;;;;6.53;5.93;;;8.30;74.50;;;;;;4993184;28;20505;-85
2021/10/27 02:19:54;;;;;;;6.47;5.97;;;8.30;74.50;;;;;;4995042;28;20413;-85
2021/10/27 02:22:19;;;;;;;6.53;5.30;;;8.40;74.80;;;;;;4994057;28;20192;-84
2021/10/27 02:24:45;;;;;;;6.53;5.87;;;8.40;73.90;;;;;;4993386;28;20429;-84
2021/10/27 02:27:10;;;;;;;6.47;5.97;;;8.40;74.30;;;;;;4994475;28;20174;-84
2021/10/27 02:29:36;;;;;;;7.07;6.10;;;8.40;74.30;;;;;;4993777;28;20182;-84
2021/10/27 02:32:03;;;;;;;6.80;6.20;;;8.30;73.80;;;;;;4992996;28;20348;-85
2021/10/27 02:34:29;;;;;;;6.30;5.70;;;8.30;75.60;;;;;;4993541;28;20688;-86
2021/10/27 02:36:55;;;;;;;6.23;5.70;;;8.20;75.50;;;;;;4993511;28;20468;-85
2021/10/27 02:39:20;;;;;;;6.77;6.30;;;8.30;75.00;;;;;;4993164;28;20467;-85
2021/10/27 02:41:46;;;;;;;6.70;6.10;;;8.30;74.50;;;;;;4993621;28;20182;-85
2021/10/27 02:44:13;;;;;;;6.40;5.90;;;8.30;74.60;;;;;;4993479;28;20177;-85
2021/10/27 02:46:38;;;;;;;7.00;6.40;;;8.20;75.50;;;;;;4992722;28;20182;-83
2021/10/27 02:49:04;;;;;;;7.67;6.97;;;8.20;75.10;;;;;;4991975;28;20926;-86
2021/10/27 02:51:30;;;;;;;7.13;6.43;;;8.20;75.50;;;;;;4992465;28;20662;-84
2021/10/27 02:53:55;;;;;;;6.33;5.73;;;8.10;76.00;;;;;;4992699;28;20178;-84
2021/10/27 02:56:21;;;;;;;7.30;6.67;;;8.00;76.30;;;;;;4993438;28;20307;-85
2021/10/27 02:58:47;;;;;;;7.80;7.13;;;8.00;77.00;;;;;;4992989;28;20212;-86
2021/10/27 03:01:12;;;;;;;7.20;6.50;;;7.90;77.60;;;;;;4994782;28;20638;-85
2021/10/27 03:03:38;;;;;;;8.53;7.73;;;8.00;78.40;;;;;;4993795;28;20601;-84
2021/10/27 03:06:04;;;;;;;7.57;6.90;;;8.10;77.40;;;;;;4993047;28;20206;-85
2021/10/27 03:08:30;;;;;;;8.53;7.10;;;8.10;77.30;;;;;;4992920;28;20186;-86
2021/10/27 03:10:55;;;;;;;7.80;7.17;;;8.00;76.80;;;;;;4992335;28;20472;-86
2021/10/27 03:13:21;;;;;;;8.20;7.03;;;8.10;77.20;;;;;;4994143;28;20182;-85
2021/10/27 03:15:47;;;;;;;7.60;7.00;;;8.10;77.30;;;;;;4993158;28;20178;-85
2021/10/27 03:18:13;;;;;;;7.50;6.83;;;8.00;77.10;;;;;;4993014;28;20216;-85
2021/10/27 03:20:38;;;;;;;7.13;6.63;;;8.00;76.80;;;;;;4992948;28;20189;-85
2021/10/27 03:23:04;;;;;;;7.57;6.93;;;8.00;77.40;;;;;;4992693;28;20597;-85
2021/10/27 03:25:30;;;;;;;7.60;7.00;;;8.00;76.90;;;;;;4994139;28;20631;-85
2021/10/27 03:27:55;;;;;;;13.47;12.07;;;8.00;77.00;;;;;;4992858;28;20554;-85
2021/10/27 03:30:21;;;;;;;8.60;8.00;;;8.00;76.60;;;;;;4992737;28;20722;-85
2021/10/27 03:32:47;;;;;;;7.93;7.23;;;8.00;77.40;;;;;;4997247;28;20656;-85
2021/10/27 03:35:13;;;;;;;7.43;6.83;;;8.00;77.90;;;;;;4995490;28;20456;-84
2021/10/27 03:37:38;;;;;;;8.80;8.00;;;7.90;77.40;;;;;;4995948;28;20541;-86
2021/10/27 03:40:05;;;;;;;7.30;6.70;;;7.90;77.50;;;;;;4998053;28;20185;-85
2021/10/27 03:42:31;;;;;;;8.77;7.77;;;7.90;77.30;;;;;;4996507;28;20181;-84
2021/10/27 03:44:56;;;;;;;8.40;7.80;;;7.90;76.60;;;;;;4996800;28;20418;-85
2021/10/27 03:47:22;;;;;;;8.17;7.57;;;7.90;76.40;;;;;;4996576;28;20574;-86
2021/10/27 03:49:48;;;;;;;7.70;7.00;;;7.90;76.70;;;;;;4997426;28;20520;-85
2021/10/27 03:52:15;;;;;;;18.07;16.27;;;7.90;76.40;;;;;;4997375;28;20216;-87
2021/10/27 03:54:41;;;;;;;7.50;6.57;;;7.90;76.50;;;;;;4997751;28;20421;-87
2021/10/27 03:57:06;;;;;;;7.90;7.20;;;7.80;75.80;;;;;;4998143;28;20928;-88
2021/10/27 03:59:32;;;;;;;8.83;8.13;;;7.80;76.90;;;;;;4999217;28;20184;-84
2021/10/27 04:01:58;;;;;;;8.53;7.90;;;7.90;76.90;;;;;;4998286;28;20269;-85
2021/10/27 04:04:23;;;;;;;8.30;7.17;;;7.90;76.40;;;;;;4997094;28;20224;-85
2021/10/27 04:06:49;;;;;;;7.83;7.03;;;7.80;77.20;;;;;;4997080;28;20213;-87
2021/10/27 04:09:15;;;;;;;8.07;7.30;;;7.80;77.30;;;;;;4998071;28;20217;-87
2021/10/27 04:11:42;;;;;;;6.90;6.40;;;7.80;75.70;;;;;;4997240;28;20208;-88
2021/10/27 04:14:11;;;;;;;7.90;7.20;;;7.70;76.30;;;;;;4996433;28;20178;-85
2021/10/27 04:16:36;;;;;;;8.70;8.00;;;7.80;75.50;;;;;;4994568;28;20467;-84
2021/10/27 04:19:03;;;;;;;8.20;7.50;;;7.70;75.90;;;;;;4996591;28;20508;-82
2021/10/27 04:21:28;;;;;;;9.17;8.20;;;7.70;76.30;;;;;;4995247;28;20178;-80
2021/10/27 04:23:54;;;;;;;9.50;7.33;;;7.70;76.10;;;;;;4995714;28;20429;-81
2021/10/27 04:26:20;;;;;;;8.00;7.20;;;7.60;76.60;;;;;;4994688;28;20193;-82
2021/10/27 04:28:45;;;;;;;7.77;6.97;;;7.60;77.10;;;;;;4996324;28;20653;-82
2021/10/27 04:31:11;;;;;;;7.70;7.00;;;7.60;77.90;;;;;;4995078;28;20215;-83
2021/10/27 04:33:36;;;;;;;8.50;7.70;;;7.60;77.80;;;;;;4994805;28;20177;-82
2021/10/27 04:36:02;;;;;;;8.07;7.40;;;7.70;76.40;;;;;;4994596;28;20178;-82
2021/10/27 04:38:28;;;;;;;7.50;6.93;;;7.70;76.60;;;;;;4994127;28;20206;-82
2021/10/27 04:40:55;;;;;;;9.03;8.23;;;7.70;75.20;;;;;;4994295;28;20499;-81
2021/10/27 04:43:21;;;;;;;8.10;7.50;;;7.60;75.90;;;;;;4994466;28;20186;-87
2021/10/27 04:45:46;;;;;;;7.97;7.17;;;7.50;76.20;;;;;;4997393;28;20480;-88
2021/10/27 04:48:13;;;;;;;7.50;6.90;;;7.60;75.80;;;;;;4996177;28;20429;-91
2021/10/27 04:50:39;;;;;;;7.73;7.10;;;7.50;76.10;;;;;;4997661;28;20205;-91
2021/10/27 04:53:15;;;;;;;8.10;6.93;;;7.50;76.30;;;;;;4998206;28;20428;-92
2021/10/27 04:55:42;;;;;;;7.70;7.00;;;7.50;75.90;;;;;;4996998;28;20192;-91
2021/10/27 04:58:07;;;;;;;8.80;8.00;;;7.50;76.30;;;;;;4998314;28;20451;-91
2021/10/27 05:00:33;;;;;;;8.30;7.37;;;7.60;75.40;;;;;;4997231;28;20476;-88
2021/10/27 05:02:59;;;;;;;8.93;8.13;;;7.60;75.20;;;;;;4996602;28;20178;-89
2021/10/27 05:05:26;;;;;;;8.53;7.70;;;7.50;74.60;;;;;;4995775;28;20208;-89
2021/10/27 05:07:53;;;;;;;7.50;6.90;;;7.50;75.60;;;;;;4996382;28;20188;-90
2021/10/27 05:10:18;;;;;;;8.77;8.03;;;7.50;75.70;;;;;;4996176;28;20516;-90
2021/10/27 05:12:44;;;;;;;9.10;8.30;;;7.60;75.00;;;;;;4997754;28;20460;-90
2021/10/27 05:15:10;;;;;;;8.23;7.43;;;7.60;75.00;;;;;;4997630;28;20174;-90
2021/10/27 05:17:38;;;;;;;8.90;7.40;;;7.60;75.00;;;;;;4996570;28;20188;-90
2021/10/27 05:20:04;;;;;;;9.00;8.10;;;7.60;74.70;;;;;;4996273;28;20323;-91
2021/10/27 05:22:32;;;;;;;8.10;7.50;;;7.60;74.40;;;;;;4996591;28;20431;-93
2021/10/27 05:24:58;;;;;;;8.00;7.23;;;7.50;74.90;;;;;;4994620;28;20417;-87
2021/10/27 05:27:24;;;;;;;8.17;7.47;;;7.60;74.50;;;;;;4993974;28;20423;-87
2021/10/27 05:29:49;;;;;;;8.67;8.00;;;7.60;74.50;;;;;;4995565;28;20174;-87
2021/10/27 05:32:15;;;;;;;9.77;8.87;;;7.60;75.00;;;;;;4994219;28;20208;-92
2021/10/27 05:34:44;;;;;;;12.00;9.00;;;7.50;74.30;;;;;;4994842;28;20178;-86
2021/10/27 05:37:10;;;;;;;9.60;8.70;;;7.50;75.00;;;;;;4995365;28;20204;-89
2021/10/27 05:39:36;;;;;;;9.33;8.57;;;7.50;74.90;;;;;;4995908;28;20925;-91
2021/10/27 05:42:03;;;;;;;10.03;7.63;;;7.50;74.40;;;;;;4996733;28;20431;-90
2021/10/27 05:44:29;;;;;;;9.30;8.50;;;7.60;74.80;;;;;;4996794;28;20181;-89
2021/10/27 05:46:56;;;;;;;9.13;8.43;;;7.60;73.70;;;;;;4999531;28;20499;-90
2021/10/27 05:57:22;;;;;;;9.23;8.30;;;7.80;73.70;;;;;;4952691;28;20827;-84
2021/10/27 05:59:51;;;;;;;9.70;8.80;;;7.80;73.00;;;;;;4985546;28;20417;-84
2021/10/27 06:02:16;;;;;;;13.97;9.17;;;7.80;73.70;;;;;;4992614;28;20207;-83
2021/10/27 06:04:42;;;;;;;9.53;8.73;;;7.70;73.20;;;;;;4992395;28;20968;-83
2021/10/27 06:07:08;;;;;;;11.03;9.77;;;7.70;73.70;;;;;;4992386;28;20423;-83
2021/10/27 06:09:34;;;;;;;10.90;9.87;;;7.70;73.90;;;;;;4992294;28;20845;-85
2021/10/27 06:12:04;;;;;;;10.40;9.40;;;7.70;73.80;;;;;;4992592;28;20535;-85
2021/10/27 06:14:31;;;;;;;10.47;9.27;;;7.70;73.60;;;;;;4992525;28;20914;-85
2021/10/27 06:16:57;;;;;;;11.27;9.67;;;7.80;73.80;;;;;;4992405;28;20424;-84
2021/10/27 06:19:23;;;;;;;9.50;8.53;;;7.80;73.20;;;;;;4992208;28;20420;-83
2021/10/27 06:21:49;;;;;;;9.37;8.57;;;7.90;73.10;;;;;;4992386;28;20424;-84
2021/10/27 06:24:15;;;;;;;10.00;9.00;;;8.00;72.50;;;;;;4992244;28;20600;-84
2021/10/27 06:26:43;;;;;;;10.20;9.30;;;8.00;71.40;;;;;;4992241;28;20429;-84
2021/10/27 06:29:13;;;;;;;9.27;8.47;;;8.00;71.90;;;;;;4992164;28;20182;-85
2021/10/27 06:34:29;;;;;;;10.60;9.13;;;8.00;73.20;;;;;;4994450;28;20429;-86
2021/10/27 06:37:11;;;;;;;10.40;9.40;;;8.10;73.40;;;;;;4993079;28;20213;-86
2021/10/27 06:47:47;;;;;;;13.63;11.30;;;8.70;72.90;;;;;;4975575;28;20480;-83
2021/10/27 06:50:13;;;;;;;13.00;10.23;;;8.80;72.60;;;;;;4986467;28;20425;-85
2021/10/27 06:52:39;;;;;;;12.63;11.37;;;8.90;71.20;;;;;;4992176;28;20428;-84
2021/10/27 06:55:05;;;;;;;12.23;11.00;;;9.00;71.20;;;;;;4992018;28;20198;-84
2021/10/27 06:57:33;;;;;;;16.93;10.90;;;9.00;71.00;;;;;;4988180;28;20428;-84
2021/10/27 07:00:03;;;;;;;17.77;11.80;;;9.00;69.90;;;;;;4991873;28;20789;-83
2021/10/27 07:03:07;;;;;;;12.13;10.80;;;9.20;69.90;;;;;;4991857;28;20429;-84
2021/10/27 07:16:19;;;;;;;12.13;11.13;;;9.30;66.70;;;;;;4978185;28;20409;-83
2021/10/27 07:18:45;;;;;;;11.50;10.40;;;9.30;66.50;;;;;;4992366;28;20421;-82
2021/10/27 07:21:15;;;;;;;12.30;11.10;;;9.30;66.00;;;;;;4992454;28;20193;-83
2021/10/27 07:23:41;;;;;;;16.30;11.17;;;9.30;66.50;;;;;;4992771;28;20183;-83
2021/10/27 07:26:07;;;;;;;15.73;10.80;;;9.30;66.50;;;;;;4992376;28;20794;-84
2021/10/27 07:28:33;;;;;;;13.40;9.93;;;9.30;67.30;;;;;;4992334;28;20714;-83
2021/10/27 07:31:01;;;;;;;13.30;10.67;;;9.30;67.10;;;;;;4992569;28;20528;-83
2021/10/27 07:33:29;;;;;;;9.20;8.33;;;9.40;66.30;;;;;;4993206;28;20182;-90
2021/10/27 07:41:25;;;;;;;10.63;9.40;;;9.70;66.00;;;;;;4980364;28;20461;-90
2021/10/27 07:43:51;;;;;;;10.30;9.43;;;9.80;65.30;;;;;;4995474;28;20611;-90
2021/10/27 07:46:24;;;;;;;11.20;9.90;;;9.80;65.20;;;;;;4995775;28;20675;-93
2021/10/27 07:48:50;;;;;;;13.33;11.93;;;9.80;65.90;;;;;;4996336;28;20178;-90
2021/10/27 07:51:16;;;;;;;10.40;9.30;;;9.90;65.30;;;;;;4995499;28;20472;-90
2021/10/27 07:53:42;;;;;;;10.60;9.60;;;9.80;66.00;;;;;;4996898;28;20937;-91
2021/10/27 07:56:08;;;;;;;12.67;11.47;;;9.80;66.90;;;;;;4997380;28;20428;-91
2021/10/27 07:58:34;;;;;;;11.50;10.47;;;9.80;66.90;;;;;;4998657;28;20623;-91
2021/10/27 08:01:00;;;;;;;10.60;9.50;;;9.90;67.10;;;;;;4998469;28;20512;-91
2021/10/27 08:03:32;;;;;;;10.73;9.73;;;9.90;66.10;;;;;;4997407;28;20840;-92
2021/10/27 08:06:07;;;;;;;11.07;8.93;;;9.90;65.30;;;;;;4997611;28;20454;-91
2021/10/27 08:08:33;;;;;;;10.37;9.47;;;10.00;64.90;;;;;;4997864;28;20781;-91
2021/10/27 08:10:59;;;;;;;9.67;8.80;;;10.00;64.80;;;;;;4997306;28;20453;-92
2021/10/27 08:13:25;;;;;;;10.00;9.20;;;10.00;63.10;;;;;;4997805;28;20178;-90
2021/10/27 08:15:51;;;;;;;11.83;10.63;;;9.90;64.30;;;;;;4997408;28;20420;-91
2021/10/27 08:18:17;;;;;;;9.60;8.80;;;10.00;63.80;;;;;;4997548;28;20325;-91
2021/10/27 08:20:47;;;;;;;11.53;10.37;;;10.10;63.40;;;;;;4997166;28;20959;-89
2021/10/27 08:23:15;;;;;;;20.00;14.90;;;10.00;61.00;;;;;;4996912;28;20448;-91
2021/10/27 08:25:44;;;;;;;10.80;9.90;;;10.00;61.10;;;;;;4997221;28;20424;-90
2021/10/27 08:28:14;;;;;;;11.30;10.20;;;9.90;61.90;;;;;;4997692;28;20454;-91
2021/10/27 08:35:48;;;;;;;14.03;9.87;;;9.90;62.40;;;;;;4977515;28;20397;-86
2021/10/27 08:38:14;;;;;;;13.43;10.13;;;10.00;61.20;;;;;;4974979;28;20429;-86
2021/10/27 08:40:49;;;;;;;12.60;10.23;;;10.10;61.10;;;;;;4975490;28;20839;-86
2021/10/27 08:43:14;;;;;;;11.37;9.67;;;10.20;61.00;;;;;;4976631;28;20237;-87
2021/10/27 08:45:41;;;;;;;12.67;10.30;;;10.20;60.60;;;;;;4975282;28;20426;-86
2021/10/27 08:48:12;;;;;;;11.67;10.57;;;10.30;60.70;;;;;;4976231;28;20429;-86
2021/10/27 08:50:42;;;;;;;11.67;10.57;;;10.30;59.00;;;;;;4975685;28;20461;-86
2021/10/27 08:53:08;;;;;;;11.50;10.40;;;10.30;58.70;;;;;;4975853;28;20434;-86
2021/10/27 08:55:35;;;;;;;11.20;10.10;;;10.30;59.00;;;;;;4975798;28;20811;-86
2021/10/27 08:58:02;;;;;;;11.40;10.30;;;10.40;58.90;;;;;;4975192;28;20524;-86
2021/10/27 09:03:26;;;;;;;12.37;11.27;;;10.50;59.60;;;;;;4997347;28;20897;-86
2021/10/27 09:08:45;;;;;;;14.47;10.30;;;10.80;59.30;;;;;;4997047;28;20417;-85
2021/10/27 10:05:20;;;;;;;14.37;9.40;;;12.00;53.80;;;;;;4995217;28;20984;-86
2021/10/27 10:07:46;;;;;;;11.33;10.23;;;12.10;55.80;;;;;;4993980;28;20528;-85
2021/10/27 10:10:13;;;;;;;11.83;9.87;;;12.20;54.90;;;;;;4994186;28;20508;-86
2021/10/27 10:12:53;;;;;;;12.10;9.30;;;12.20;55.30;;;;;;4994570;28;20548;-86
2021/10/27 10:15:27;;;;;;;14.13;11.27;;;12.20;54.80;;;;;;4994208;28;20413;-80
2021/10/27 10:17:54;;;;;;;12.50;11.30;;;12.10;54.30;;;;;;4992825;28;20464;-80
2021/10/27 10:20:24;;;;;;;10.67;9.77;;;12.20;54.60;;;;;;4992840;28;20906;-81
2021/10/27 10:22:50;;;;;;;11.50;10.40;;;12.20;55.20;;;;;;4992237;28;20421;-81
2021/10/27 10:25:19;;;;;;;11.13;9.40;;;12.30;55.10;;;;;;4992549;28;20417;-81
2021/10/27 10:27:49;;;;;;;10.90;9.83;;;12.20;55.40;;;;;;4991941;28;20174;-79
2021/10/27 10:30:36;;;;;;;9.00;8.10;;;12.30;55.30;;;;;;4992249;28;20449;-80
2021/10/27 10:33:03;;;;;;;11.03;10.00;;;12.40;55.70;;;;;;4992302;28;20448;-81
2021/10/27 10:35:41;;;;;;;9.93;8.80;;;12.40;55.00;;;;;;4991789;28;20479;-81
2021/10/27 10:38:41;;;;;;;10.67;9.33;;;12.40;55.10;;;;;;4991438;28;20472;-80
2021/10/27 11:38:54;;;;;;;5.70;4.50;;;13.40;50.80;;;;;;4994019;28;20421;-86
2021/10/27 11:45:13;;;;;;;4.60;4.20;;;13.40;50.60;;;;;;4970652;28;20475;-85
2021/10/27 11:47:45;;;;;;;5.20;4.77;;;13.40;50.50;;;;;;4990682;28;20424;-84
2021/10/27 11:50:19;;;;;;;4.93;4.50;;;13.40;50.20;;;;;;4972439;28;20944;-85
2021/10/27 11:52:53;;;;;;;4.97;4.17;;;13.40;50.20;;;;;;4975780;28;20426;-85
2021/10/27 11:55:21;;;;;;;4.83;3.40;;;13.50;50.60;;;;;;4975725;28;20791;-84
2021/10/27 11:57:53;;;;;;;6.67;5.10;;;13.40;50.20;;;;;;4991779;28;20425;-85
2021/10/27 12:00:32;;;;;;;6.07;5.43;;;13.50;49.10;;;;;;4976099;28;20426;-85
2021/10/27 12:03:19;;;;;;;6.97;5.00;;;13.60;49.60;;;;;;4980330;28;20445;-84
2021/10/27 12:13:42;;;;;;;10.00;6.73;;;13.50;48.20;;;;;;4977735;28;20415;-85
2021/10/27 12:16:43;;;;;;;5.10;4.60;;;13.60;47.10;;;;;;4976425;28;20422;-85
2021/10/27 12:19:23;;;;;;;5.53;4.20;;;13.60;48.20;;;;;;4975650;28;20422;-86
2021/10/27 12:21:54;;;;;;;5.10;4.50;;;13.60;49.40;;;;;;4991453;28;20457;-86
2021/10/27 12:24:26;;;;;;;4.77;4.37;;;13.60;48.80;;;;;;4991922;28;20185;-88
2021/10/27 12:27:06;;;;;;;4.90;4.30;;;13.60;48.60;;;;;;4992688;28;20436;-85
2021/10/27 12:29:37;;;;;;;5.33;4.53;;;13.70;48.80;;;;;;4992576;28;20434;-86
2021/10/27 12:32:06;;;;;;;5.83;5.33;;;13.70;49.50;;;;;;4991977;28;20461;-85
2021/10/27 12:34:47;;;;;;;4.67;4.27;;;13.70;48.90;;;;;;4991936;28;20981;-86
2021/10/27 12:40:34;;;;;;;4.63;4.20;;;13.90;47.00;;;;;;4976520;28;20498;-85
2021/10/27 12:43:19;;;;;;;4.87;3.90;;;13.80;48.20;;;;;;4991383;28;20889;-85
2021/10/27 12:45:49;;;;;;;3.40;3.20;;;13.80;47.80;;;;;;4992221;28;20919;-88
2021/10/27 12:48:19;;;;;;;4.77;4.27;;;13.80;46.60;;;;;;4991223;28;20818;-87
2021/10/27 12:50:54;;;;;;;3.30;2.50;;;13.90;45.10;;;;;;4992117;28;20462;-87
2021/10/27 12:53:38;;;;;;;4.17;2.90;;;14.00;45.10;;;;;;4991135;28;20449;-85
2021/10/27 12:56:15;;;;;;;3.10;2.33;;;14.00;45.10;;;;;;4991228;28;20992;-86
2021/10/27 12:58:48;;;;;;;5.73;3.67;;;14.00;44.50;;;;;;4990258;28;20457;-84
2021/10/27 13:06:49;;;;;;;2.80;2.60;;;14.10;44.60;;;;;;4976923;28;20425;-88
2021/10/27 13:23:08;;;;;;;6.23;2.47;;;14.20;44.10;;;;;;4975953;28;20436;-87
2021/10/27 13:31:06;;;;;;;2.80;2.60;;;14.30;43.90;;;;;;4975938;28;20468;-81
2021/10/27 13:33:32;;;;;;;3.37;2.73;;;14.30;44.10;;;;;;4990746;28;20430;-81
2021/10/27 13:35:57;;;;;;;3.20;2.67;;;14.30;43.80;;;;;;4990795;28;20420;-82
2021/10/27 13:38:27;;;;;;;3.07;2.70;;;14.30;43.60;;;;;;4990886;28;20194;-82
2021/10/27 13:40:53;;;;;;;3.73;2.70;;;14.30;43.20;;;;;;4991907;28;20182;-78
2021/10/27 13:43:24;;;;;;;2.53;2.33;;;14.30;44.40;;;;;;4990586;28;20433;-80
2021/10/27 14:07:44;;;;;;;3.60;3.13;;;14.40;43.70;;;;;;4994301;28;20432;-77
2021/10/27 14:10:28;;;;;;;7.77;4.47;;;14.40;44.70;;;;;;4993083;28;20776;-84
2021/10/27 14:13:03;;;;;;;5.20;4.63;;;14.50;43.10;;;;;;4993332;28;20754;-82
2021/10/27 14:18:53;;;;;;;5.13;4.20;;;14.80;44.10;;;;;;4933975;29;20451;-82
2021/10/27 14:51:19;;;;;;;4.03;3.30;;;15.00;41.90;;;;;;4993550;28;21000;-82
2021/10/27 15:21:08;;;;;;;4.40;2.83;;;14.70;41.50;;;;;;4993652;28;20420;-84
2021/10/27 15:31:40;;;;;;;2.77;2.57;;;14.50;40.90;;;;;;4997229;28;20865;-85
2021/10/27 15:34:22;;;;;;;2.70;2.23;;;14.50;41.50;;;;;;4995536;28;20591;-85
2021/10/27 15:52:49;;;;;;;3.70;3.40;;;14.10;42.40;;;;;;4997050;28;20991;-86
2021/10/27 15:55:15;;;;;;;3.43;3.13;;;14.10;43.10;;;;;;4995571;28;20421;-85
2021/10/27 15:57:40;;;;;;;3.80;3.20;;;14.10;42.90;;;;;;4996521;28;20293;-84
2021/10/27 16:00:08;;;;;;;2.70;2.50;;;14.10;42.70;;;;;;4996025;28;20210;-84
2021/10/27 16:02:34;;;;;;;4.70;3.37;;;14.00;43.10;;;;;;4995707;28;20189;-83
2021/10/27 16:05:00;;;;;;;3.97;2.53;;;13.90;44.20;;;;;;4995081;28;20941;-83
2021/10/27 16:07:27;;;;;;;2.40;2.20;;;13.80;44.20;;;;;;4995531;28;20208;-84
2021/10/27 16:09:59;;;;;;;4.17;2.93;;;13.80;44.50;;;;;;4996416;28;20452;-82
2021/10/27 16:12:28;;;;;;;3.53;3.00;;;13.70;44.80;;;;;;4995747;28;20460;-83
2021/10/27 16:14:54;;;;;;;4.05;3.33;;;13.50;44.70;;;;;;4994317;28;20420;-82
2021/10/27 16:17:21;;;;;;;4.17;2.67;;;13.50;45.60;;;;;;4995082;28;20261;-83
2021/10/27 16:19:46;;;;;;;4.00;2.70;;;13.40;46.10;;;;;;4994647;28;20413;-82
2021/10/27 16:22:12;;;;;;;3.27;2.97;;;13.30;46.20;;;;;;4995805;28;20420;-83
2021/10/27 16:24:39;;;;;;;9.20;3.50;;;13.30;46.60;;;;;;4994758;28;20174;-83
2021/10/27 16:27:05;;;;;;;4.17;3.50;;;13.20;46.90;;;;;;4994479;28;20174;-82
2021/10/27 16:29:30;;;;;;;4.90;3.50;;;13.20;48.10;;;;;;4994674;28;20425;-82
2021/10/27 16:31:56;;;;;;;4.53;2.90;;;13.10;48.90;;;;;;4994370;28;20464;-83
2021/10/27 16:34:22;;;;;;;7.33;3.97;;;13.00;48.90;;;;;;4992056;28;20178;-83
2021/10/27 16:36:49;;;;;;;5.63;3.80;;;13.00;49.70;;;;;;4994278;28;20417;-81
2021/10/27 16:39:17;;;;;;;4.80;4.40;;;12.90;49.70;;;;;;4994334;28;20181;-83
2021/10/27 16:41:43;;;;;;;7.27;5.30;;;12.90;50.20;;;;;;4993897;28;20421;-82
2021/10/27 16:44:09;;;;;;;6.83;6.23;;;12.80;50.40;;;;;;4993950;28;20787;-82
2021/10/27 16:46:35;;;;;;;7.70;6.60;;;12.80;50.50;;;;;;4993839;28;20417;-83
2021/10/27 16:49:00;;;;;;;8.70;7.90;;;12.80;51.10;;;;;;4995077;28;20878;-83
2021/10/27 16:51:26;;;;;;;8.47;6.87;;;12.70;51.50;;;;;;4993932;28;20681;-83
2021/10/27 16:53:52;;;;;;;6.97;6.30;;;12.60;51.60;;;;;;4994109;28;20188;-82
2021/10/27 16:56:18;;;;;;;17.53;6.97;;;12.50;51.70;;;;;;4994209;28;20208;-83
2021/10/27 16:58:43;;;;;;;6.60;6.00;;;12.50;52.00;;;;;;4993887;28;20437;-82
2021/10/27 17:01:09;;;;;;;5.30;4.90;;;12.40;52.10;;;;;;4994237;28;20174;-82
2021/10/27 17:03:36;;;;;;;4.83;4.37;;;12.40;52.50;;;;;;4993017;28;20181;-82
2021/10/27 17:06:02;;;;;;;4.60;4.17;;;12.30;52.50;;;;;;4993231;28;20290;-82
2021/10/27 17:08:28;;;;;;;4.70;4.30;;;12.30;52.50;;;;;;4993418;28;20457;-83
2021/10/27 17:10:54;;;;;;;4.03;3.73;;;12.30;52.70;;;;;;4995061;28;20644;-83
2021/10/27 17:13:22;;;;;;;5.80;4.70;;;12.20;53.30;;;;;;4993645;28;20589;-83
2021/10/27 17:15:48;;;;;;;5.57;4.77;;;12.20;53.30;;;;;;4996252;28;20484;-88
2021/10/27 17:18:14;;;;;;;5.00;4.50;;;12.10;53.60;;;;;;4994649;28;20420;-88
2021/10/27 17:20:45;;;;;;;6.43;4.57;;;12.10;54.10;;;;;;4995171;28;20890;-88
2021/10/27 17:23:17;;;;;;;5.10;4.63;;;12.00;54.40;;;;;;4994888;28;20475;-87
2021/10/27 17:25:43;;;;;;;5.80;5.03;;;12.00;54.40;;;;;;4994231;28;20479;-88
2021/10/27 17:28:09;;;;;;;4.33;3.93;;;12.00;54.90;;;;;;4994026;28;20414;-88
2021/10/27 17:30:36;;;;;;;4.83;4.23;;;12.00;54.60;;;;;;4994344;28;20193;-89
2021/10/27 17:33:04;;;;;;;4.83;4.43;;;11.90;54.80;;;;;;4994744;28;20456;-89
2021/10/27 17:35:30;;;;;;;4.67;4.27;;;11.80;54.90;;;;;;4994502;28;20419;-89
2021/10/27 17:37:56;;;;;;;5.10;4.70;;;11.80;55.20;;;;;;4994846;28;20443;-88
2021/10/27 17:40:29;;;;;;;7.83;5.97;;;11.80;55.20;;;;;;4978562;28;20496;-88
2021/10/27 17:42:55;;;;;;;5.47;4.93;;;11.80;54.50;;;;;;4994367;28;20421;-87
2021/10/27 17:45:24;;;;;;;5.77;4.60;;;11.80;54.70;;;;;;4993004;28;20428;-86
2021/10/27 17:48:01;;;;;;;7.23;5.60;;;11.80;55.50;;;;;;4993053;28;20495;-86
2021/10/27 18:00:59;;;;;;;7.37;4.23;;;11.70;56.10;;;;;;4995605;28;21013;-86
2021/10/27 18:03:25;;;;;;;5.73;4.93;;;11.70;55.90;;;;;;4993407;28;20806;-87
2021/10/27 18:05:51;;;;;;;4.53;4.03;;;11.70;56.70;;;;;;4993403;28;20452;-87
2021/10/27 18:08:20;;;;;;;5.37;4.40;;;11.60;56.40;;;;;;4993027;28;20432;-84